createdAt,value
2019-01-18T00:00:02.774Z,3.35
2019-01-18T00:00:06.966Z,3.36
2019-01-18T00:00:11.165Z,3.35
2019-01-18T00:00:15.457Z,3.35
2019-01-18T00:00:19.789Z,3.35
2019-01-18T00:00:24.087Z,3.36
2019-01-18T00:00:28.373Z,3.36
2019-01-18T00:00:32.707Z,3.36
2019-01-18T00:00:36.890Z,3.36
2019-01-18T00:00:41.123Z,3.36
2019-01-18T00:00:45.407Z,3.35
2019-01-18T00:00:49.603Z,3.37
2019-01-18T00:00:53.885Z,3.36
2019-01-18T00:00:58.200Z,3.37
2019-01-18T00:01:02.493Z,3.37
2019-01-18T00:01:06.786Z,3.38
2019-01-18T00:01:11.071Z,3.38
2019-01-18T00:01:15.355Z,3.37
2019-01-18T00:01:19.638Z,3.37
2019-01-18T00:01:23.822Z,3.38
2019-01-18T00:01:28.107Z,3.38
2019-01-18T00:01:32.400Z,3.38
2019-01-18T00:01:36.689Z,3.39
2019-01-18T00:01:40.977Z,3.38
2019-01-18T00:01:45.259Z,3.37
2019-01-18T00:01:49.548Z,3.36
2019-01-18T00:01:53.836Z,3.38
2019-01-18T00:01:58.124Z,3.38
2019-01-18T00:02:02.413Z,3.38
2019-01-18T00:02:06.606Z,3.39
2019-01-18T00:02:10.897Z,3.38
2019-01-18T00:02:15.186Z,3.39
2019-01-18T00:02:19.475Z,3.37
2019-01-18T00:02:23.764Z,3.38
2019-01-18T00:02:27.951Z,3.38
2019-01-18T00:02:32.233Z,3.36
2019-01-18T00:02:36.523Z,3.37
2019-01-18T00:02:40.811Z,3.37
2019-01-18T00:02:45.094Z,3.38
2019-01-18T00:02:49.277Z,3.37
2019-01-18T00:02:53.561Z,3.38
2019-01-18T00:02:57.755Z,3.38
2019-01-18T00:03:02.041Z,3.38
2019-01-18T00:03:06.295Z,3.38
2019-01-18T00:03:10.504Z,3.37
2019-01-18T00:03:14.800Z,3.37
2019-01-18T00:03:19.091Z,3.37
2019-01-18T00:03:23.377Z,3.37
2019-01-18T00:03:27.565Z,3.38
2019-01-18T00:03:31.856Z,3.38
2019-01-18T00:03:36.144Z,3.37
2019-01-18T00:03:40.426Z,3.39
2019-01-18T00:03:44.721Z,3.38
2019-01-18T00:03:48.821Z,3.38
2019-01-18T00:03:53.103Z,3.39
2019-01-18T00:03:57.289Z,3.39
2019-01-18T00:04:01.578Z,3.4
2019-01-18T00:04:05.865Z,3.39
2019-01-18T00:04:10.173Z,3.4
2019-01-18T00:04:14.461Z,3.4
2019-01-18T00:04:18.556Z,3.41
2019-01-18T00:04:22.842Z,3.4
2019-01-18T00:04:27.028Z,3.41
2019-01-18T00:04:32.163Z,3.4
2019-01-18T00:04:36.457Z,3.42
2019-01-18T00:04:40.748Z,3.41
2019-01-18T00:04:45.030Z,3.41
2019-01-18T00:04:49.124Z,3.41
2019-01-18T00:04:53.419Z,3.42
2019-01-18T00:04:57.707Z,3.42
2019-01-18T00:05:01.892Z,3.42
2019-01-18T00:05:06.083Z,3.42
2019-01-18T00:05:10.272Z,3.42
2019-01-18T00:05:14.561Z,3.42
2019-01-18T00:05:18.843Z,3.43
2019-01-18T00:05:23.034Z,3.43
2019-01-18T00:05:27.225Z,3.42
2019-01-18T00:05:31.523Z,3.42
2019-01-18T00:05:35.806Z,3.43
2019-01-18T00:05:40.090Z,3.43
2019-01-18T00:05:44.383Z,3.42
2019-01-18T00:05:48.675Z,3.43
2019-01-18T00:05:52.973Z,3.43
2019-01-18T00:05:57.269Z,3.43
2019-01-18T00:06:01.554Z,3.43
2019-01-18T00:06:05.854Z,3.44
2019-01-18T00:06:10.086Z,3.44
2019-01-18T00:06:14.276Z,3.43
2019-01-18T00:06:18.561Z,3.44
2019-01-18T00:06:22.860Z,3.44
2019-01-18T00:06:27.061Z,3.44
2019-01-18T00:06:31.347Z,3.45
2019-01-18T00:06:35.541Z,3.45
2019-01-18T00:06:39.733Z,3.44
2019-01-18T00:06:44.020Z,3.45
2019-01-18T00:06:48.305Z,3.44
2019-01-18T00:06:52.589Z,3.45
2019-01-18T00:06:56.786Z,3.45
2019-01-18T00:07:01.074Z,3.45
2019-01-18T00:07:05.267Z,3.45
2019-01-18T00:07:09.551Z,3.45
2019-01-18T00:07:13.751Z,3.45
2019-01-18T00:07:18.094Z,3.46
2019-01-18T00:07:22.381Z,3.46
2019-01-18T00:07:26.668Z,3.46
2019-01-18T00:07:30.958Z,3.45
2019-01-18T00:07:35.159Z,3.46
2019-01-18T00:07:39.445Z,3.46
2019-01-18T00:07:43.643Z,3.46
2019-01-18T00:07:47.923Z,3.46
2019-01-18T00:07:52.202Z,3.46
2019-01-18T00:07:56.395Z,3.47
2019-01-18T00:08:00.682Z,3.45
2019-01-18T00:08:05.015Z,3.46
2019-01-18T00:08:09.309Z,3.46
2019-01-18T00:08:13.592Z,3.45
2019-01-18T00:08:17.878Z,3.46
2019-01-18T00:08:22.191Z,3.46
2019-01-18T00:08:26.474Z,3.47
2019-01-18T00:08:30.670Z,3.46
2019-01-18T00:08:34.951Z,3.45
2019-01-18T00:08:39.242Z,3.47
2019-01-18T00:08:43.531Z,3.45
2019-01-18T00:08:47.815Z,3.46
2019-01-18T00:08:52.107Z,3.47
2019-01-18T00:08:56.291Z,3.46
2019-01-18T00:09:00.579Z,3.46
2019-01-18T00:09:04.767Z,3.46
2019-01-18T00:09:09.057Z,3.46
2019-01-18T00:09:13.346Z,3.46
2019-01-18T00:09:17.534Z,3.46
2019-01-18T00:09:21.735Z,3.46
2019-01-18T00:09:26.016Z,3.46
2019-01-18T00:09:30.202Z,3.45
2019-01-18T00:09:34.490Z,3.46
2019-01-18T00:09:38.778Z,3.45
2019-01-18T00:09:42.962Z,3.45
2019-01-18T00:09:47.265Z,3.46
2019-01-18T00:09:51.548Z,3.45
2019-01-18T00:09:55.834Z,3.46
2019-01-18T00:10:00.244Z,3.46
2019-01-18T00:10:04.441Z,3.46
2019-01-18T00:10:08.724Z,3.45
2019-01-18T00:10:12.911Z,3.46
2019-01-18T00:10:17.200Z,3.46
2019-01-18T00:10:21.501Z,3.46
2019-01-18T00:10:25.783Z,3.45
2019-01-18T00:10:30.080Z,3.46
2019-01-18T00:10:34.364Z,3.46
2019-01-18T00:10:38.651Z,3.46
2019-01-18T00:10:42.834Z,3.45
2019-01-18T00:10:47.030Z,3.46
2019-01-18T00:10:51.325Z,3.46
2019-01-18T00:10:55.606Z,3.46
2019-01-18T00:10:59.896Z,3.46
2019-01-18T00:11:04.233Z,3.46
2019-01-18T00:11:08.515Z,3.46
2019-01-18T00:11:12.842Z,3.47
2019-01-18T00:11:16.929Z,3.47
2019-01-18T00:11:21.215Z,3.47
2019-01-18T00:11:25.509Z,3.47
2019-01-18T00:11:29.790Z,3.46
2019-01-18T00:11:34.071Z,3.47
2019-01-18T00:11:38.353Z,3.47
2019-01-18T00:11:42.643Z,3.47
2019-01-18T00:11:46.929Z,3.47
2019-01-18T00:11:51.121Z,3.48
2019-01-18T00:11:55.317Z,3.48
2019-01-18T00:11:59.603Z,3.47
2019-01-18T00:12:03.887Z,3.47
2019-01-18T00:12:08.174Z,3.47
2019-01-18T00:12:12.459Z,3.48
2019-01-18T00:12:16.745Z,3.48
2019-01-18T00:12:21.044Z,3.48
2019-01-18T00:12:25.333Z,3.48
2019-01-18T00:12:29.614Z,3.48
2019-01-18T00:12:33.910Z,3.47
2019-01-18T00:12:38.209Z,3.48
2019-01-18T00:12:42.492Z,3.48
2019-01-18T00:12:46.781Z,3.48
2019-01-18T00:12:51.067Z,3.48
2019-01-18T00:12:55.157Z,3.49
2019-01-18T00:12:59.444Z,3.49
2019-01-18T00:13:03.631Z,3.48
2019-01-18T00:13:07.917Z,3.49
2019-01-18T00:13:12.200Z,3.49
2019-01-18T00:13:16.394Z,3.48
2019-01-18T00:13:20.701Z,3.65
2019-01-18T00:13:24.889Z,3.75
2019-01-18T00:13:29.089Z,3.81
2019-01-18T00:13:33.277Z,3.86
2019-01-18T00:13:37.565Z,3.9
2019-01-18T00:13:41.853Z,3.95
2019-01-18T00:13:46.134Z,3.98
2019-01-18T00:13:50.428Z,4.02
2019-01-18T00:13:54.762Z,4.07
2019-01-18T00:13:59.053Z,4.11
2019-01-18T00:14:03.436Z,4.14
2019-01-18T00:14:07.625Z,4.16
2019-01-18T00:14:11.914Z,4.2
2019-01-18T00:14:16.106Z,4.22
2019-01-18T00:14:20.392Z,4.25
2019-01-18T00:14:24.590Z,4.27
2019-01-18T00:14:28.903Z,4.29
2019-01-18T00:14:33.192Z,4.29
2019-01-18T00:14:37.473Z,4.34
2019-01-18T00:14:41.759Z,4.36
2019-01-18T00:14:46.042Z,4.39
2019-01-18T00:14:50.237Z,4.41
2019-01-18T00:14:54.555Z,4.4
2019-01-18T00:14:58.745Z,4.46
2019-01-18T00:15:03.065Z,4.47
2019-01-18T00:15:07.249Z,4.5
2019-01-18T00:15:11.533Z,4.52
2019-01-18T00:15:15.823Z,4.54
2019-01-18T00:15:20.108Z,4.54
2019-01-18T00:15:24.395Z,4.56
2019-01-18T00:15:28.690Z,4.58
2019-01-18T00:15:32.977Z,4.59
2019-01-18T00:15:37.072Z,4.61
2019-01-18T00:15:41.360Z,4.62
2019-01-18T00:15:45.639Z,4.63
2019-01-18T00:15:49.957Z,4.65
2019-01-18T00:15:54.240Z,4.65
2019-01-18T00:15:58.522Z,4.68
2019-01-18T00:16:02.904Z,4.69
2019-01-18T00:16:07.190Z,4.7
2019-01-18T00:16:11.480Z,4.7
2019-01-18T00:16:15.767Z,4.7
2019-01-18T00:16:20.051Z,4.7
2019-01-18T00:16:24.245Z,4.66
2019-01-18T00:16:28.438Z,4.7
2019-01-18T00:16:32.724Z,4.73
2019-01-18T00:16:36.920Z,4.74
2019-01-18T00:16:41.201Z,4.75
2019-01-18T00:16:45.389Z,4.74
2019-01-18T00:16:49.917Z,4.74
2019-01-18T00:16:54.207Z,4.75
2019-01-18T00:16:58.529Z,4.75
2019-01-18T00:17:02.814Z,4.76
2019-01-18T00:17:07.105Z,4.76
2019-01-18T00:17:11.389Z,4.76
2019-01-18T00:17:15.686Z,4.76
2019-01-18T00:17:19.969Z,4.76
2019-01-18T00:17:24.258Z,4.76
2019-01-18T00:17:28.544Z,4.76
2019-01-18T00:17:32.831Z,4.76
2019-01-18T00:17:37.127Z,4.75
2019-01-18T00:17:41.312Z,4.76
2019-01-18T00:17:45.592Z,4.74
2019-01-18T00:17:49.881Z,4.75
2019-01-18T00:17:54.069Z,4.73
2019-01-18T00:17:58.396Z,4.72
2019-01-18T00:18:02.740Z,4.63
2019-01-18T00:18:07.034Z,4.52
2019-01-18T00:18:11.321Z,4.46
2019-01-18T00:18:15.608Z,4.4
2019-01-18T00:18:19.801Z,4.37
2019-01-18T00:18:23.994Z,4.33
2019-01-18T00:18:28.082Z,4.29
2019-01-18T00:18:32.372Z,4.26
2019-01-18T00:18:36.582Z,4.23
2019-01-18T00:18:40.867Z,4.21
2019-01-18T00:18:45.053Z,4.17
2019-01-18T00:18:49.238Z,4.15
2019-01-18T00:18:53.526Z,4.13
2019-01-18T00:18:57.858Z,4.1
2019-01-18T00:19:02.042Z,4.09
2019-01-18T00:19:06.330Z,4.07
2019-01-18T00:19:10.621Z,4.05
2019-01-18T00:19:14.918Z,4.03
2019-01-18T00:19:19.210Z,4
2019-01-18T00:19:23.497Z,4
2019-01-18T00:19:27.788Z,3.98
2019-01-18T00:19:32.069Z,3.97
2019-01-18T00:19:36.358Z,3.95
2019-01-18T00:19:40.646Z,3.95
2019-01-18T00:19:44.932Z,3.94
2019-01-18T00:19:49.255Z,3.92
2019-01-18T00:19:53.542Z,3.91
2019-01-18T00:19:57.731Z,3.89
2019-01-18T00:20:02.022Z,3.89
2019-01-18T00:20:06.309Z,3.88
2019-01-18T00:20:10.589Z,3.86
2019-01-18T00:20:14.879Z,3.86
2019-01-18T00:20:19.192Z,3.85
2019-01-18T00:20:23.383Z,3.85
2019-01-18T00:20:27.674Z,3.84
2019-01-18T00:20:31.760Z,3.84
2019-01-18T00:20:36.054Z,3.82
2019-01-18T00:20:40.341Z,3.91
2019-01-18T00:20:44.625Z,4.06
2019-01-18T00:20:48.908Z,4.13
2019-01-18T00:20:53.003Z,4.08
2019-01-18T00:20:57.286Z,3.98
2019-01-18T00:21:01.481Z,3.95
2019-01-18T00:21:05.778Z,3.92
2019-01-18T00:21:09.962Z,3.88
2019-01-18T00:21:14.296Z,3.88
2019-01-18T00:21:18.584Z,3.85
2019-01-18T00:21:22.903Z,3.85
2019-01-18T00:21:27.091Z,3.83
2019-01-18T00:21:31.421Z,3.83
2019-01-18T00:21:35.709Z,3.82
2019-01-18T00:21:39.996Z,3.81
2019-01-18T00:21:44.284Z,3.8
2019-01-18T00:21:48.575Z,3.79
2019-01-18T00:21:52.766Z,3.79
2019-01-18T00:21:57.054Z,3.78
2019-01-18T00:22:01.343Z,3.76
2019-01-18T00:22:05.628Z,3.76
2019-01-18T00:22:09.910Z,3.76
2019-01-18T00:22:14.197Z,3.75
2019-01-18T00:22:18.382Z,3.76
2019-01-18T00:22:22.676Z,3.75
2019-01-18T00:22:26.862Z,3.74
2019-01-18T00:22:31.155Z,3.74
2019-01-18T00:22:35.339Z,3.74
2019-01-18T00:22:39.522Z,3.73
2019-01-18T00:22:43.716Z,3.72
2019-01-18T00:22:48.002Z,3.72
2019-01-18T00:22:52.298Z,3.72
2019-01-18T00:22:56.620Z,3.71
2019-01-18T00:23:00.813Z,3.71
2019-01-18T00:23:05.106Z,3.7
2019-01-18T00:23:09.385Z,3.7
2019-01-18T00:23:13.580Z,3.69
2019-01-18T00:23:17.867Z,3.69
2019-01-18T00:23:22.149Z,3.68
2019-01-18T00:23:26.430Z,3.68
2019-01-18T00:23:31.652Z,3.68
2019-01-18T00:23:35.936Z,3.68
2019-01-18T00:23:40.131Z,3.81
2019-01-18T00:23:44.418Z,3.91
2019-01-18T00:23:48.740Z,3.95
2019-01-18T00:23:53.034Z,3.98
2019-01-18T00:23:57.318Z,4
2019-01-18T00:24:01.622Z,4.04
2019-01-18T00:24:05.906Z,4.05
2019-01-18T00:24:10.192Z,4.1
2019-01-18T00:24:14.483Z,4.01
2019-01-18T00:24:18.766Z,3.93
2019-01-18T00:24:23.055Z,3.89
2019-01-18T00:24:27.345Z,3.87
2019-01-18T00:24:31.629Z,3.86
2019-01-18T00:24:35.931Z,3.84
2019-01-18T00:24:40.229Z,3.83
2019-01-18T00:24:44.525Z,3.81
2019-01-18T00:24:48.831Z,3.8
2019-01-18T00:24:53.122Z,3.79
2019-01-18T00:24:57.406Z,3.77
2019-01-18T00:25:01.698Z,3.76
2019-01-18T00:25:05.999Z,3.75
2019-01-18T00:25:10.284Z,3.75
2019-01-18T00:25:14.573Z,3.74
2019-01-18T00:25:18.862Z,3.74
2019-01-18T00:25:23.055Z,3.73
2019-01-18T00:25:27.343Z,3.73
2019-01-18T00:25:31.536Z,3.71
2019-01-18T00:25:35.834Z,3.71
2019-01-18T00:25:40.174Z,3.71
2019-01-18T00:25:44.369Z,3.7
2019-01-18T00:25:48.653Z,3.7
2019-01-18T00:25:52.934Z,3.69
2019-01-18T00:25:57.224Z,3.69
2019-01-18T00:26:01.515Z,3.68
2019-01-18T00:26:05.808Z,3.69
2019-01-18T00:26:09.999Z,3.68
2019-01-18T00:26:14.281Z,3.68
2019-01-18T00:26:18.568Z,3.67
2019-01-18T00:26:22.857Z,3.68
2019-01-18T00:26:27.142Z,3.67
2019-01-18T00:26:31.435Z,3.67
2019-01-18T00:26:35.722Z,3.67
2019-01-18T00:26:40.007Z,3.66
2019-01-18T00:26:44.192Z,3.67
2019-01-18T00:26:48.482Z,3.65
2019-01-18T00:26:52.773Z,3.65
2019-01-18T00:26:57.056Z,3.65
2019-01-18T00:27:01.342Z,3.66
2019-01-18T00:27:05.670Z,3.66
2019-01-18T00:27:09.964Z,3.65
2019-01-18T00:27:14.159Z,3.66
2019-01-18T00:27:18.453Z,3.66
2019-01-18T00:27:22.739Z,3.66
2019-01-18T00:27:26.931Z,3.66
2019-01-18T00:27:31.222Z,3.65
2019-01-18T00:27:35.513Z,3.64
2019-01-18T00:27:39.813Z,3.66
2019-01-18T00:27:44.106Z,3.66
2019-01-18T00:27:48.298Z,3.64
2019-01-18T00:27:52.585Z,3.65
2019-01-18T00:27:56.874Z,3.65
2019-01-18T00:28:01.157Z,3.66
2019-01-18T00:28:05.354Z,3.65
2019-01-18T00:28:09.644Z,3.65
2019-01-18T00:28:13.935Z,3.65
2019-01-18T00:28:18.221Z,3.65
2019-01-18T00:28:22.518Z,3.65
2019-01-18T00:28:26.800Z,3.64
2019-01-18T00:28:31.084Z,3.64
2019-01-18T00:28:35.371Z,3.63
2019-01-18T00:28:39.652Z,3.63
2019-01-18T00:28:43.938Z,3.64
2019-01-18T00:28:48.228Z,3.63
2019-01-18T00:28:52.414Z,3.64
2019-01-18T00:28:56.708Z,3.63
2019-01-18T00:29:00.894Z,3.64
2019-01-18T00:29:05.175Z,3.64
2019-01-18T00:29:09.465Z,3.65
2019-01-18T00:29:13.754Z,3.65
2019-01-18T00:29:18.082Z,3.63
2019-01-18T00:29:22.377Z,3.64
2019-01-18T00:29:33.204Z,3.63
2019-01-18T00:29:37.485Z,3.63
2019-01-18T00:29:41.766Z,3.63
2019-01-18T00:29:45.953Z,3.64
2019-01-18T00:29:50.241Z,3.64
2019-01-18T00:29:54.527Z,3.64
2019-01-18T00:29:58.731Z,3.64
2019-01-18T00:30:03.081Z,3.64
2019-01-18T00:30:07.369Z,3.65
2019-01-18T00:30:11.655Z,3.65
2019-01-18T00:30:15.952Z,3.64
2019-01-18T00:30:20.148Z,3.64
2019-01-18T00:30:24.430Z,3.64
2019-01-18T00:30:28.617Z,3.64
2019-01-18T00:30:32.803Z,3.66
2019-01-18T00:30:37.091Z,3.65
2019-01-18T00:30:41.378Z,3.66
2019-01-18T00:30:45.678Z,3.65
2019-01-18T00:30:49.963Z,3.66
2019-01-18T00:30:54.253Z,3.66
2019-01-18T00:30:58.474Z,3.66
2019-01-18T00:31:02.758Z,3.66
2019-01-18T00:31:07.041Z,3.66
2019-01-18T00:31:11.237Z,3.66
2019-01-18T00:31:16.588Z,3.66
2019-01-18T00:31:20.874Z,3.65
2019-01-18T00:31:25.166Z,3.66
2019-01-18T00:31:29.459Z,3.65
2019-01-18T00:31:33.652Z,3.66
2019-01-18T00:31:37.962Z,3.66
2019-01-18T00:31:42.152Z,3.66
2019-01-18T00:31:46.439Z,3.65
2019-01-18T00:31:50.726Z,3.66
2019-01-18T00:31:55.014Z,3.67
2019-01-18T00:31:59.296Z,3.66
2019-01-18T00:32:03.584Z,3.67
2019-01-18T00:32:07.870Z,3.67
2019-01-18T00:32:12.156Z,3.66
2019-01-18T00:32:16.346Z,3.66
2019-01-18T00:32:20.631Z,3.68
2019-01-18T00:32:24.917Z,3.68
2019-01-18T00:32:29.241Z,3.67
2019-01-18T00:32:33.522Z,3.68
2019-01-18T00:32:37.711Z,3.67
2019-01-18T00:32:41.897Z,3.68
2019-01-18T00:32:46.179Z,3.67
2019-01-18T00:32:50.370Z,3.67
2019-01-18T00:32:54.670Z,3.67
2019-01-18T00:32:59.006Z,3.68
2019-01-18T00:33:03.197Z,3.67
2019-01-18T00:33:07.484Z,3.67
2019-01-18T00:33:11.773Z,3.68
2019-01-18T00:33:16.058Z,3.68
2019-01-18T00:33:20.249Z,3.67
2019-01-18T00:33:24.537Z,3.68
2019-01-18T00:33:28.824Z,3.68
2019-01-18T00:33:33.114Z,3.68
2019-01-18T00:33:37.401Z,3.69
2019-01-18T00:33:41.593Z,3.68
2019-01-18T00:33:45.782Z,3.68
2019-01-18T00:33:49.976Z,3.69
2019-01-18T00:33:54.264Z,3.69
2019-01-18T00:33:58.550Z,3.69
2019-01-18T00:34:02.805Z,3.68
2019-01-18T00:34:06.993Z,3.69
2019-01-18T00:34:11.273Z,3.7
2019-01-18T00:34:15.554Z,3.69
2019-01-18T00:34:19.641Z,3.69
2019-01-18T00:34:23.933Z,3.69
2019-01-18T00:34:28.138Z,3.7
2019-01-18T00:34:32.336Z,3.69
2019-01-18T00:34:36.624Z,3.7
2019-01-18T00:34:40.918Z,3.69
2019-01-18T00:34:45.107Z,3.7
2019-01-18T00:34:49.396Z,3.7
2019-01-18T00:34:53.690Z,3.7
2019-01-18T00:34:57.975Z,3.69
2019-01-18T00:35:02.386Z,3.68
2019-01-18T00:35:06.586Z,3.68
2019-01-18T00:35:10.880Z,3.68
2019-01-18T00:35:15.163Z,3.69
2019-01-18T00:35:19.443Z,3.68
2019-01-18T00:35:23.733Z,3.68
2019-01-18T00:35:28.024Z,3.68
2019-01-18T00:35:32.310Z,3.68
2019-01-18T00:35:36.505Z,3.68
2019-01-18T00:35:40.594Z,3.68
2019-01-18T00:35:44.896Z,3.68
2019-01-18T00:35:49.089Z,3.67
2019-01-18T00:35:53.425Z,3.67
2019-01-18T00:35:57.713Z,3.67
2019-01-18T00:36:01.899Z,3.67
2019-01-18T00:36:06.193Z,3.67
2019-01-18T00:36:10.477Z,3.68
2019-01-18T00:36:14.767Z,3.67
2019-01-18T00:36:18.956Z,3.67
2019-01-18T00:36:23.238Z,3.67
2019-01-18T00:36:27.523Z,3.67
2019-01-18T00:36:31.805Z,3.67
2019-01-18T00:36:36.094Z,3.67
2019-01-18T00:36:40.379Z,3.66
2019-01-18T00:36:44.674Z,3.66
2019-01-18T00:36:48.865Z,3.66
2019-01-18T00:36:52.953Z,3.66
2019-01-18T00:36:57.040Z,3.65
2019-01-18T00:37:01.325Z,3.66
2019-01-18T00:37:06.744Z,3.66
2019-01-18T00:37:11.086Z,3.64
2019-01-18T00:37:15.370Z,3.65
2019-01-18T00:37:19.654Z,3.63
2019-01-18T00:37:23.845Z,3.64
2019-01-18T00:37:28.135Z,3.64
2019-01-18T00:37:32.318Z,3.63
2019-01-18T00:37:36.598Z,3.64
2019-01-18T00:37:40.884Z,3.63
2019-01-18T00:37:45.171Z,3.63
2019-01-18T00:37:49.478Z,3.63
2019-01-18T00:37:53.665Z,3.63
2019-01-18T00:37:57.850Z,3.63
2019-01-18T00:38:02.148Z,3.63
2019-01-18T00:38:06.347Z,3.63
2019-01-18T00:38:10.631Z,3.63
2019-01-18T00:38:14.819Z,3.63
2019-01-18T00:38:19.107Z,3.62
2019-01-18T00:38:23.394Z,3.63
2019-01-18T00:38:27.582Z,3.62
2019-01-18T00:38:31.867Z,3.62
2019-01-18T00:38:36.148Z,3.62
2019-01-18T00:38:40.341Z,3.63
2019-01-18T00:38:44.535Z,3.62
2019-01-18T00:38:48.820Z,3.62
2019-01-18T00:38:53.009Z,3.62
2019-01-18T00:38:57.293Z,3.62
2019-01-18T00:39:01.585Z,3.62
2019-01-18T00:39:05.876Z,3.62
2019-01-18T00:39:10.163Z,3.61
2019-01-18T00:39:14.364Z,3.62
2019-01-18T00:39:18.648Z,3.62
2019-01-18T00:39:22.937Z,3.62
2019-01-18T00:39:27.225Z,3.62
2019-01-18T00:39:31.516Z,3.61
2019-01-18T00:39:35.802Z,3.62
2019-01-18T00:39:40.092Z,3.61
2019-01-18T00:39:44.375Z,3.61
2019-01-18T00:39:48.661Z,3.61
2019-01-18T00:39:52.945Z,3.61
2019-01-18T00:39:57.231Z,3.6
2019-01-18T00:40:01.636Z,3.61
2019-01-18T00:40:05.927Z,3.59
2019-01-18T00:40:10.120Z,3.59
2019-01-18T00:40:14.402Z,3.6
2019-01-18T00:40:18.732Z,3.73
2019-01-18T00:40:23.025Z,3.8
2019-01-18T00:40:27.309Z,3.78
2019-01-18T00:40:31.602Z,3.7
2019-01-18T00:40:35.891Z,3.69
2019-01-18T00:40:40.175Z,3.67
2019-01-18T00:40:44.461Z,3.64
2019-01-18T00:40:48.752Z,3.63
2019-01-18T00:40:52.954Z,3.64
2019-01-18T00:40:57.244Z,3.62
2019-01-18T00:41:01.537Z,3.61
2019-01-18T00:41:05.721Z,3.61
2019-01-18T00:41:09.907Z,3.61
2019-01-18T00:41:14.201Z,3.61
2019-01-18T00:41:18.493Z,3.59
2019-01-18T00:41:22.779Z,3.6
2019-01-18T00:41:26.969Z,3.59
2019-01-18T00:41:31.260Z,3.67
2019-01-18T00:41:35.455Z,3.83
2019-01-18T00:41:39.742Z,3.88
2019-01-18T00:41:44.030Z,3.79
2019-01-18T00:41:48.334Z,3.73
2019-01-18T00:41:52.523Z,3.71
2019-01-18T00:41:56.813Z,3.69
2019-01-18T00:42:01.099Z,3.68
2019-01-18T00:42:05.489Z,3.67
2019-01-18T00:42:09.773Z,3.66
2019-01-18T00:42:14.059Z,3.66
2019-01-18T00:42:18.245Z,3.65
2019-01-18T00:42:22.544Z,3.64
2019-01-18T00:42:26.829Z,3.63
2019-01-18T00:42:31.107Z,3.63
2019-01-18T00:42:35.295Z,3.62
2019-01-18T00:42:41.078Z,3.62
2019-01-18T00:42:45.274Z,3.62
2019-01-18T00:42:49.467Z,3.67
2019-01-18T00:42:53.654Z,3.63
2019-01-18T00:42:57.846Z,3.62
2019-01-18T00:43:02.151Z,3.61
2019-01-18T00:43:06.451Z,3.6
2019-01-18T00:43:10.631Z,3.6
2019-01-18T00:43:14.913Z,3.59
2019-01-18T00:43:19.207Z,3.59
2019-01-18T00:43:23.493Z,3.59
2019-01-18T00:43:27.774Z,3.59
2019-01-18T00:43:32.059Z,3.59
2019-01-18T00:43:36.351Z,3.57
2019-01-18T00:43:40.645Z,3.56
2019-01-18T00:43:44.835Z,3.57
2019-01-18T00:43:49.026Z,3.56
2019-01-18T00:43:53.123Z,3.56
2019-01-18T00:43:57.456Z,3.55
2019-01-18T00:44:01.749Z,3.55
2019-01-18T00:44:05.944Z,3.55
2019-01-18T00:44:10.234Z,3.54
2019-01-18T00:44:14.526Z,3.54
2019-01-18T00:44:18.819Z,3.54
2019-01-18T00:44:23.109Z,3.53
2019-01-18T00:44:27.396Z,3.53
2019-01-18T00:44:31.589Z,3.52
2019-01-18T00:44:35.887Z,3.53
2019-01-18T00:44:40.170Z,3.51
2019-01-18T00:44:44.457Z,3.52
2019-01-18T00:44:48.747Z,3.51
2019-01-18T00:44:53.034Z,3.49
2019-01-18T00:44:57.319Z,3.49
2019-01-18T00:45:01.526Z,3.49
2019-01-18T00:45:05.742Z,3.48
2019-01-18T00:45:10.027Z,3.48
2019-01-18T00:45:14.213Z,3.48
2019-01-18T00:45:18.508Z,3.47
2019-01-18T00:45:22.739Z,3.46
2019-01-18T00:45:26.843Z,3.46
2019-01-18T00:45:31.134Z,3.44
2019-01-18T00:45:35.417Z,3.44
2019-01-18T00:45:39.700Z,3.43
2019-01-18T00:45:43.884Z,3.43
2019-01-18T00:45:48.172Z,3.42
2019-01-18T00:45:52.459Z,3.42
2019-01-18T00:45:56.748Z,3.41
2019-01-18T00:46:00.936Z,3.41
2019-01-18T00:46:05.227Z,3.4
2019-01-18T00:46:09.518Z,3.39
2019-01-18T00:46:13.806Z,3.38
2019-01-18T00:46:18.099Z,3.37
2019-01-18T00:46:22.385Z,3.38
2019-01-18T00:46:26.684Z,3.36
2019-01-18T00:46:30.974Z,3.36
2019-01-18T00:46:35.255Z,3.35
2019-01-18T00:46:39.547Z,3.34
2019-01-18T00:46:43.841Z,3.34
2019-01-18T00:46:48.140Z,3.33
2019-01-18T00:46:52.429Z,3.33
2019-01-18T00:46:56.646Z,3.32
2019-01-18T00:47:00.931Z,3.32
2019-01-18T00:47:05.227Z,3.31
2019-01-18T00:47:09.515Z,3.3
2019-01-18T00:47:13.802Z,3.3
2019-01-18T00:47:17.991Z,3.3
2019-01-18T00:47:22.178Z,3.29
2019-01-18T00:47:26.460Z,3.3
2019-01-18T00:47:30.743Z,3.29
2019-01-18T00:47:35.025Z,3.29
2019-01-18T00:47:39.311Z,3.28
2019-01-18T00:47:43.500Z,3.27
2019-01-18T00:47:47.603Z,3.27
2019-01-18T00:47:51.942Z,3.26
2019-01-18T00:47:56.232Z,3.26
2019-01-18T00:48:00.516Z,3.25
2019-01-18T00:48:04.951Z,3.26
2019-01-18T00:48:09.245Z,3.25
2019-01-18T00:48:13.528Z,3.25
2019-01-18T00:48:17.725Z,3.24
2019-01-18T00:48:21.826Z,3.23
2019-01-18T00:48:26.061Z,3.24
2019-01-18T00:48:30.369Z,3.22
2019-01-18T00:48:34.572Z,3.22
2019-01-18T00:48:38.766Z,3.22
2019-01-18T00:48:42.954Z,3.21
2019-01-18T00:48:48.130Z,3.21
2019-01-18T00:48:52.410Z,3.21
2019-01-18T00:48:56.694Z,3.2
2019-01-18T00:49:00.982Z,3.2
2019-01-18T00:49:05.275Z,3.18
2019-01-18T00:49:09.560Z,3.18
2019-01-18T00:49:13.847Z,3.17
2019-01-18T00:49:18.139Z,3.17
2019-01-18T00:49:22.433Z,3.16
2019-01-18T00:49:26.623Z,3.16
2019-01-18T00:49:30.911Z,3.15
2019-01-18T00:49:35.103Z,3.14
2019-01-18T00:49:39.391Z,3.14
2019-01-18T00:49:43.690Z,3.13
2019-01-18T00:49:47.977Z,3.13
2019-01-18T00:49:52.263Z,3.12
2019-01-18T00:49:56.600Z,3.12
2019-01-18T00:50:00.970Z,3.11
2019-01-18T00:50:05.266Z,3.11
2019-01-18T00:50:09.555Z,3.11
2019-01-18T00:50:13.887Z,3.09
2019-01-18T00:50:18.183Z,3.08
2019-01-18T00:50:22.373Z,3.09
2019-01-18T00:50:26.666Z,3.08
2019-01-18T00:50:30.969Z,3.07
2019-01-18T00:50:35.257Z,3.06
2019-01-18T00:50:39.546Z,3.07
2019-01-18T00:50:43.834Z,3.06
2019-01-18T00:50:48.024Z,3.05
2019-01-18T00:50:52.318Z,3.05
2019-01-18T00:50:56.515Z,3.05
2019-01-18T00:51:00.803Z,3.05
2019-01-18T00:51:05.092Z,3.04
2019-01-18T00:51:09.383Z,3.03
2019-01-18T00:51:13.675Z,3.03
2019-01-18T00:51:17.960Z,3.02
2019-01-18T00:51:22.250Z,3.01
2019-01-18T00:51:26.539Z,3
2019-01-18T00:51:30.824Z,3
2019-01-18T00:51:35.016Z,3
2019-01-18T00:51:39.339Z,2.99
2019-01-18T00:51:43.433Z,2.99
2019-01-18T00:51:47.779Z,2.98
2019-01-18T00:51:52.071Z,2.99
2019-01-18T00:51:56.198Z,2.98
2019-01-18T00:52:00.489Z,2.97
2019-01-18T00:52:04.530Z,2.97
2019-01-18T00:52:08.814Z,2.97
2019-01-18T00:52:12.999Z,2.96
2019-01-18T00:52:17.296Z,2.96
2019-01-18T00:52:21.579Z,2.96
2019-01-18T00:52:25.787Z,2.95
2019-01-18T00:52:29.879Z,2.95
2019-01-18T00:52:34.161Z,2.94
2019-01-18T00:52:38.357Z,2.94
2019-01-18T00:52:42.553Z,2.93
2019-01-18T00:52:46.843Z,2.94
2019-01-18T00:52:51.039Z,2.93
2019-01-18T00:52:55.326Z,2.91
2019-01-18T00:52:59.612Z,2.91
2019-01-18T00:53:03.892Z,2.9
2019-01-18T00:53:08.178Z,2.9
2019-01-18T00:53:12.466Z,2.88
2019-01-18T00:53:16.750Z,2.87
2019-01-18T00:53:21.038Z,2.85
2019-01-18T00:53:25.318Z,2.86
2019-01-18T00:53:29.604Z,2.84
2019-01-18T00:53:33.896Z,2.83
2019-01-18T00:53:38.183Z,2.82
2019-01-18T00:53:42.499Z,2.82
2019-01-18T00:53:46.778Z,2.79
2019-01-18T00:53:51.070Z,2.79
2019-01-18T00:53:55.362Z,2.76
2019-01-18T00:53:59.645Z,2.75
2019-01-18T00:54:03.932Z,2.75
2019-01-18T00:54:08.126Z,2.74
2019-01-18T00:54:12.409Z,2.73
2019-01-18T00:54:16.604Z,2.71
2019-01-18T00:54:20.894Z,2.71
2019-01-18T00:54:25.187Z,2.7
2019-01-18T00:54:29.375Z,2.7
2019-01-18T00:54:33.658Z,2.69
2019-01-18T00:54:37.942Z,2.67
2019-01-18T00:54:42.062Z,2.67
2019-01-18T00:54:46.348Z,2.66
2019-01-18T00:54:50.639Z,2.65
2019-01-18T00:54:54.929Z,2.65
2019-01-18T00:54:59.216Z,2.64
2019-01-18T00:55:03.508Z,2.64
2019-01-18T00:55:07.796Z,2.61
2019-01-18T00:55:11.985Z,2.61
2019-01-18T00:55:16.316Z,2.6
2019-01-18T00:55:20.419Z,2.58
2019-01-18T00:55:24.607Z,2.58
2019-01-18T00:55:28.895Z,2.57
2019-01-18T00:55:33.185Z,2.57
2019-01-18T00:55:37.370Z,2.56
2019-01-18T00:55:41.663Z,2.55
2019-01-18T00:55:45.949Z,2.55
2019-01-18T00:55:50.232Z,2.54
2019-01-18T00:55:54.510Z,2.54
2019-01-18T00:55:58.795Z,2.53
2019-01-18T00:56:03.239Z,2.52
2019-01-18T00:56:07.531Z,2.52
2019-01-18T00:56:11.725Z,2.51
2019-01-18T00:56:16.005Z,2.5
2019-01-18T00:56:20.289Z,2.51
2019-01-18T00:56:24.478Z,2.49
2019-01-18T00:56:28.764Z,2.48
2019-01-18T00:56:33.055Z,2.49
2019-01-18T00:56:37.245Z,2.48
2019-01-18T00:56:41.435Z,2.47
2019-01-18T00:56:45.723Z,2.48
2019-01-18T00:56:50.003Z,2.46
2019-01-18T00:56:54.189Z,2.46
2019-01-18T00:56:58.482Z,2.45
2019-01-18T00:57:02.771Z,2.44
2019-01-18T00:57:06.955Z,2.45